< < Back
Terminal Aerodrome Forecast


Current Version              Previous Versions:   1  2  3  4  5  6  7  8  9  

Terminal Aerodrome Forecast

606
FTUS44 KMOB 210500
TAFPNS
TAF
KPNS 210526Z 2106/2206 04004KT P6SM FEW050 FEW200
     FM211800 14007KT P6SM SCT040 SCT200=



Latest METAR

677
SAUS70 KWBC 210800 RRG
MTRPNS
METAR KPNS 210753Z AUTO 03006KT 10SM CLR 21/19 A2998 RMK AO2 SLP151
T02110194


USA.gov is the U.S. government's official web portal to all federal, state and local government web resources and services.